Time,TemperatureF,DewpointF,PressureIn,WindDirection,WindDirectionDegrees,WindSpeedMPH,WindSpeedGustMPH,Humidity,HourlyPrecipIn,Conditions,Clouds,dailyrainin,SoftwareType,DateUTC
2013-06-27 00:09:00,72.5,71.0,29.83,South,180,0.0,-999.0,95,-99.99,,,0.00,Acu-Link.com,2013-06-27 04:09:00,
2013-06-27 00:25:00,72.5,71.0,29.83,SW,225,0.0,-999.0,95,-99.99,,,0.00,Acu-Link.com,2013-06-27 04:25:00,
2013-06-27 00:40:00,72.9,71.4,29.82,West,270,0.0,-999.0,95,-99.99,,,0.00,Acu-Link.com,2013-06-27 04:40:00,
2013-06-27 00:55:00,72.7,71.2,29.82,WNW,292,0.0,-999.0,95,-99.99,,,0.00,Acu-Link.com,2013-06-27 04:55:00,
2013-06-27 01:11:00,73.6,72.1,29.82,WNW,292,0.0,-999.0,95,-99.99,,,0.00,Acu-Link.com,2013-06-27 05:11:00,
2013-06-27 01:26:00,73.0,71.5,29.80,WSW,247,0.0,-999.0,95,-99.99,,,0.00,Acu-Link.com,2013-06-27 05:26:00,
2013-06-27 01:41:00,72.7,71.2,29.80,ESE,112,0.0,-999.0,95,-99.99,,,0.00,Acu-Link.com,2013-06-27 05:41:00,
2013-06-27 01:56:00,72.7,71.2,29.80,SE,135,0.0,-999.0,95,-99.99,,,0.00,Acu-Link.com,2013-06-27 05:56:00,
2013-06-27 02:12:00,72.5,71.3,29.79,SSE,157,0.0,-999.0,96,-99.99,,,0.00,Acu-Link.com,2013-06-27 06:12:00,
2013-06-27 02:27:00,72.1,70.9,29.79,SE,135,0.0,-999.0,96,-99.99,,,0.00,Acu-Link.com,2013-06-27 06:27:00,
2013-06-27 02:42:00,72.1,70.9,29.79,NW,315,0.0,-999.0,96,-99.99,,,0.00,Acu-Link.com,2013-06-27 06:42:00,
2013-06-27 02:58:00,72.0,70.8,29.79,WNW,292,0.0,-999.0,96,-99.99,,,0.00,Acu-Link.com,2013-06-27 06:58:00,
2013-06-27 03:13:00,72.0,70.8,29.79,ESE,112,0.0,-999.0,96,-99.99,,,0.00,Acu-Link.com,2013-06-27 07:13:00,
2013-06-27 03:28:00,72.5,71.3,29.79,East,90,0.0,-999.0,96,-99.99,,,0.00,Acu-Link.com,2013-06-27 07:28:00,
2013-06-27 03:44:00,72.1,70.9,29.79,ESE,112,0.0,-999.0,96,-99.99,,,0.00,Acu-Link.com,2013-06-27 07:44:00,
2013-06-27 03:59:00,72.9,71.7,29.79,SE,135,1.1,-999.0,96,-99.99,,,0.00,Acu-Link.com,2013-06-27 07:59:00,
2013-06-27 04:14:00,72.7,71.5,29.78,ENE,67,0.0,-999.0,96,-99.99,,,0.00,Acu-Link.com,2013-06-27 08:14:00,
2013-06-27 04:29:00,72.9,71.7,29.79,NNE,22,0.0,-999.0,96,-99.99,,,0.00,Acu-Link.com,2013-06-27 08:29:00,
2013-06-27 04:44:00,73.0,71.8,29.78,NNW,337,0.0,-999.0,96,-99.99,,,0.00,Acu-Link.com,2013-06-27 08:44:00,
2013-06-27 04:59:00,72.7,71.5,29.79,NNW,337,0.0,-999.0,96,-99.99,,,0.00,Acu-Link.com,2013-06-27 08:59:00,
2013-06-27 05:14:00,72.7,71.5,29.80,West,270,0.0,-999.0,96,-99.99,,,0.00,Acu-Link.com,2013-06-27 09:14:00,
2013-06-27 05:30:00,72.3,71.1,29.80,West,270,0.0,-999.0,96,-99.99,,,0.00,Acu-Link.com,2013-06-27 09:30:00,
2013-06-27 05:45:00,72.7,71.2,29.80,WSW,247,0.0,-999.0,95,-99.99,,,0.00,Acu-Link.com,2013-06-27 09:45:00,
2013-06-27 06:00:00,72.7,71.2,29.81,SSW,202,0.0,-999.0,95,-99.99,,,0.00,Acu-Link.com,2013-06-27 10:00:00,
2013-06-27 06:15:00,72.9,71.1,29.81,NNE,22,0.0,-999.0,94,-99.99,,,0.00,Acu-Link.com,2013-06-27 10:15:00,
2013-06-27 06:31:00,73.0,70.9,29.81,West,270,0.0,-999.0,93,-99.99,,,0.00,Acu-Link.com,2013-06-27 10:31:00,
2013-06-27 06:46:00,72.9,70.8,29.81,East,90,0.0,-999.0,93,-99.99,,,0.00,Acu-Link.com,2013-06-27 10:46:00,
2013-06-27 07:01:00,72.9,70.8,29.82,NW,315,0.0,-999.0,93,-99.99,,,0.00,Acu-Link.com,2013-06-27 11:01:00,
2013-06-27 07:17:00,73.4,71.2,29.81,West,270,0.0,-999.0,93,-99.99,,,0.00,Acu-Link.com,2013-06-27 11:17:00,
2013-06-27 07:32:00,74.8,72.3,29.81,North,0,0.0,-999.0,92,-99.99,,,0.00,Acu-Link.com,2013-06-27 11:32:00,
2013-06-27 07:47:00,75.9,73.7,29.82,ESE,112,0.0,-999.0,93,-99.99,,,0.00,Acu-Link.com,2013-06-27 11:47:00,
2013-06-27 08:02:00,77.0,73.8,29.82,NNW,337,0.0,-999.0,90,-99.99,,,0.00,Acu-Link.com,2013-06-27 12:02:00,
2013-06-27 08:17:00,77.9,74.0,29.82,East,90,0.0,-999.0,88,-99.99,,,0.00,Acu-Link.com,2013-06-27 12:17:00,
2013-06-27 08:32:00,79.9,73.9,29.83,West,270,0.0,-999.0,82,-99.99,,,0.00,Acu-Link.com,2013-06-27 12:32:00,
2013-06-27 08:48:00,82.0,73.7,29.83,West,270,2.2,-999.0,76,-99.99,,,0.00,Acu-Link.com,2013-06-27 12:48:00,
2013-06-27 09:03:00,84.2,73.3,29.84,ESE,112,2.2,-999.0,70,-99.99,,,0.00,Acu-Link.com,2013-06-27 13:03:00,
2013-06-27 09:18:00,87.4,74.6,29.84,ENE,67,3.7,-999.0,66,-99.99,,,0.00,Acu-Link.com,2013-06-27 13:18:00,
2013-06-27 09:33:00,90.5,75.2,29.83,West,270,3.2,-999.0,61,-99.99,,,0.00,Acu-Link.com,2013-06-27 13:33:00,
2013-06-27 09:49:00,91.4,74.5,29.83,West,270,2.2,-999.0,58,-99.99,,,0.00,Acu-Link.com,2013-06-27 13:49:00,
2013-06-27 10:04:00,93.0,74.4,29.82,West,270,0.0,-999.0,55,-99.99,,,0.00,Acu-Link.com,2013-06-27 14:04:00,
2013-06-27 10:19:00,93.4,71.3,29.82,NW,315,1.7,-999.0,49,-99.99,,,0.00,Acu-Link.com,2013-06-27 14:19:00,
2013-06-27 10:34:00,89.2,70.3,29.81,NE,45,3.2,-999.0,54,-99.99,,,0.00,Acu-Link.com,2013-06-27 14:34:00,
2013-06-27 10:49:00,89.4,70.5,29.82,WNW,292,4.7,-999.0,54,-99.99,,,0.00,Acu-Link.com,2013-06-27 14:49:00,
2013-06-27 11:05:00,89.1,70.3,29.81,West,270,2.7,-999.0,54,-99.99,,,0.00,Acu-Link.com,2013-06-27 15:05:00,
2013-06-27 11:20:00,89.1,70.8,29.82,WSW,247,2.2,-999.0,55,-99.99,,,0.00,Acu-Link.com,2013-06-27 15:20:00,
2013-06-27 11:35:00,89.4,71.1,29.81,West,270,3.2,-999.0,55,-99.99,,,0.00,Acu-Link.com,2013-06-27 15:35:00,
2013-06-27 11:50:00,91.6,72.0,29.80,West,270,1.7,-999.0,53,-99.99,,,0.00,Acu-Link.com,2013-06-27 15:50:00,
2013-06-27 12:05:00,90.5,70.4,29.80,West,270,3.7,-999.0,52,-99.99,,,0.00,Acu-Link.com,2013-06-27 16:05:00,
2013-06-27 12:21:00,92.8,70.2,29.80,NW,315,2.2,-999.0,48,-99.99,,,0.00,Acu-Link.com,2013-06-27 16:21:00,
2013-06-27 12:36:00,91.4,70.1,29.80,West,270,4.2,-999.0,50,-99.99,,,0.00,Acu-Link.com,2013-06-27 16:36:00,
2013-06-27 12:51:00,93.7,70.4,29.79,ESE,112,3.7,-999.0,47,-99.99,,,0.00,Acu-Link.com,2013-06-27 16:51:00,
2013-06-27 13:07:00,91.9,71.7,29.79,WSW,247,1.1,-999.0,52,-99.99,,,0.00,Acu-Link.com,2013-06-27 17:07:00,
2013-06-27 13:22:00,93.2,72.3,29.78,NE,45,1.1,-999.0,51,-99.99,,,0.00,Acu-Link.com,2013-06-27 17:22:00,
2013-06-27 13:37:00,95.0,74.6,29.78,South,180,0.0,-999.0,52,-99.99,,,0.00,Acu-Link.com,2013-06-27 17:37:00,
2013-06-27 13:52:00,94.1,69.5,29.77,NNW,337,2.2,-999.0,45,-99.99,,,0.00,Acu-Link.com,2013-06-27 17:52:00,
2013-06-27 14:08:00,95.7,70.2,29.77,NNE,22,2.2,-999.0,44,-99.99,,,0.00,Acu-Link.com,2013-06-27 18:08:00,
2013-06-27 14:23:00,95.4,73.8,29.77,West,270,0.0,-999.0,50,-99.99,,,0.00,Acu-Link.com,2013-06-27 18:23:00,
2013-06-27 14:38:00,95.7,72.2,29.76,SE,135,2.7,-999.0,47,-99.99,,,0.00,Acu-Link.com,2013-06-27 18:38:00,
2013-06-27 14:53:00,95.5,71.4,29.75,West,270,0.0,-999.0,46,-99.99,,,0.00,Acu-Link.com,2013-06-27 18:53:00,
2013-06-27 15:09:00,93.7,69.7,29.75,North,0,1.7,-999.0,46,-99.99,,,0.00,Acu-Link.com,2013-06-27 19:09:00,
2013-06-27 15:24:00,93.6,70.3,29.73,East,90,1.7,-999.0,47,-99.99,,,0.00,Acu-Link.com,2013-06-27 19:24:00,
2013-06-27 15:39:00,94.1,71.4,29.72,ENE,67,2.2,-999.0,48,-99.99,,,0.00,Acu-Link.com,2013-06-27 19:39:00,
2013-06-27 15:54:00,93.6,69.7,29.71,East,90,3.2,-999.0,46,-99.99,,,0.00,Acu-Link.com,2013-06-27 19:54:00,
2013-06-27 16:10:00,94.6,69.3,29.70,ESE,112,2.7,-999.0,44,-99.99,,,0.00,Acu-Link.com,2013-06-27 20:10:00,
2013-06-27 16:25:00,93.4,68.8,29.68,WNW,292,1.1,-999.0,45,-99.99,,,0.00,Acu-Link.com,2013-06-27 20:25:00,
2013-06-27 16:56:00,92.7,70.7,29.67,West,270,1.1,-999.0,49,-99.99,,,0.00,Acu-Link.com,2013-06-27 20:56:00,
2013-06-27 17:11:00,91.9,71.1,29.67,South,180,0.0,-999.0,51,-99.99,,,0.00,Acu-Link.com,2013-06-27 21:11:00,
2013-06-27 17:26:00,94.6,71.2,29.67,SSW,202,1.1,-999.0,47,-99.99,,,0.00,Acu-Link.com,2013-06-27 21:26:00,
2013-06-27 17:42:00,91.2,74.3,29.68,South,180,1.7,-999.0,58,-99.99,,,0.00,Acu-Link.com,2013-06-27 21:42:00,
2013-06-27 17:57:00,91.4,74.5,29.68,South,180,2.7,-999.0,58,-99.99,,,0.00,Acu-Link.com,2013-06-27 21:57:00,
2013-06-27 18:12:00,90.5,73.7,29.69,NNW,337,0.0,-999.0,58,-99.99,,,0.00,Acu-Link.com,2013-06-27 22:12:00,
2013-06-27 18:27:00,88.3,72.6,29.69,South,180,1.7,-999.0,60,-99.99,,,0.00,Acu-Link.com,2013-06-27 22:27:00,
2013-06-27 18:57:00,87.1,72.5,29.68,SE,135,1.1,-999.0,62,-99.99,,,0.00,Acu-Link.com,2013-06-27 22:57:00,
2013-06-27 19:28:00,85.8,71.2,29.69,ENE,67,2.2,-999.0,62,-99.99,,,0.00,Acu-Link.com,2013-06-27 23:28:00,
2013-06-27 19:59:00,84.7,70.2,29.68,WNW,292,1.1,-999.0,62,-99.99,,,0.00,Acu-Link.com,2013-06-27 23:59:00,
2013-06-27 20:29:00,84.2,70.2,29.70,SSE,157,7.8,-999.0,63,-99.99,,,0.00,Acu-Link.com,2013-06-28 00:29:00,
2013-06-27 20:45:00,81.7,69.2,29.72,ENE,67,3.2,-999.0,66,-99.99,,,0.00,Acu-Link.com,2013-06-28 00:45:00,
2013-06-27 21:00:00,80.8,69.2,29.72,ENE,67,3.7,-999.0,68,-99.99,,,0.00,Acu-Link.com,2013-06-28 01:00:00,
2013-06-27 21:15:00,80.6,68.6,29.71,NNE,22,4.2,-999.0,67,-99.99,,,0.00,Acu-Link.com,2013-06-28 01:15:00,
2013-06-27 21:46:00,80.1,67.7,29.72,ESE,112,3.2,-999.0,66,-99.99,,,0.00,Acu-Link.com,2013-06-28 01:46:00,
2013-06-27 22:01:00,79.7,67.3,29.73,WSW,247,2.7,-999.0,66,-99.99,,,0.00,Acu-Link.com,2013-06-28 02:01:00,
2013-06-27 22:32:00,79.3,67.8,29.72,NNE,22,2.2,-999.0,68,-99.99,,,0.00,Acu-Link.com,2013-06-28 02:32:00,
2013-06-27 22:47:00,79.5,68.0,29.72,East,90,0.0,-999.0,68,-99.99,,,0.00,Acu-Link.com,2013-06-28 02:47:00,
2013-06-27 23:02:00,78.3,67.3,29.72,East,90,2.7,-999.0,69,-99.99,,,0.00,Acu-Link.com,2013-06-28 03:02:00,
2013-06-27 23:17:00,79.2,68.6,29.72,SW,225,1.7,-999.0,70,-99.99,,,0.00,Acu-Link.com,2013-06-28 03:17:00,
2013-06-27 23:32:00,78.4,69.0,29.73,NNW,337,1.1,-999.0,73,-99.99,,,0.00,Acu-Link.com,2013-06-28 03:32:00,
2013-06-27 23:48:00,78.1,69.1,29.73,NNW,337,1.7,-999.0,74,-99.99,,,0.00,Acu-Link.com,2013-06-28 03:48:00,